createdAt,value
2024-02-08T00:00:55.897Z,0.00
2024-02-08T00:03:22.742Z,0.00
2024-02-08T00:05:49.366Z,0.15
2024-02-08T00:08:16.176Z,0.00
2024-02-08T00:10:42.946Z,0.00
2024-02-08T00:13:09.644Z,0.00
2024-02-08T00:15:36.398Z,0.00
2024-02-08T00:18:03.348Z,0.00
2024-02-08T00:20:30.110Z,0.00
2024-02-08T00:22:56.928Z,0.00
2024-02-08T00:25:24.496Z,0.00
2024-02-08T00:27:54.471Z,0.00
2024-02-08T00:30:21.134Z,0.00
2024-02-08T00:32:50.082Z,0.00
2024-02-08T00:35:20.997Z,0.00
2024-02-08T00:37:48.543Z,0.00
2024-02-08T00:40:18.741Z,0.00
2024-02-08T00:42:49.164Z,0.00
2024-02-08T00:45:17.766Z,0.00
2024-02-08T00:47:44.557Z,0.25
2024-02-08T00:50:11.463Z,0.00
2024-02-08T00:52:38.492Z,0.00
2024-02-08T00:55:05.373Z,0.00
2024-02-08T00:57:34.098Z,0.00
2024-02-08T01:00:01.306Z,0.00
2024-02-08T01:02:29.306Z,0.00
2024-02-08T01:04:56.277Z,0.00
2024-02-08T01:07:23.053Z,0.00
2024-02-08T01:09:49.711Z,0.00
2024-02-08T01:12:17.533Z,0.00
2024-02-08T01:14:44.154Z,0.00
2024-02-08T01:17:10.897Z,0.00
2024-02-08T01:19:37.724Z,0.00
2024-02-08T01:22:04.494Z,0.00
2024-02-08T01:24:31.183Z,0.00
2024-02-08T01:26:59.313Z,0.00
2024-02-08T01:29:27.484Z,0.03
2024-02-08T01:31:54.833Z,0.00
2024-02-08T01:34:25.285Z,0.00
2024-02-08T01:36:54.800Z,0.00
2024-02-08T01:39:24.591Z,0.00
2024-02-08T01:41:51.908Z,0.00
2024-02-08T01:44:19.203Z,0.00
2024-02-08T01:46:49.521Z,0.00
2024-02-08T01:49:27.531Z,0.00
2024-02-08T01:52:01.368Z,0.00
2024-02-08T01:54:29.319Z,0.00
2024-02-08T01:56:59.841Z,0.00
2024-02-08T01:59:27.839Z,0.00
2024-02-08T02:01:57.314Z,0.00
2024-02-08T02:04:24.125Z,0.00
2024-02-08T02:06:51.227Z,0.00
2024-02-08T02:09:25.668Z,0.00
2024-02-08T02:11:52.869Z,0.00
2024-02-08T02:14:19.776Z,0.00
2024-02-08T02:16:52.327Z,0.00
2024-02-08T02:19:19.106Z,0.00
2024-02-08T02:21:47.753Z,0.17
2024-02-08T02:24:14.420Z,0.00
2024-02-08T02:26:41.182Z,0.00
2024-02-08T02:29:07.977Z,0.00
2024-02-08T02:31:34.853Z,0.00
2024-02-08T02:34:01.786Z,0.00
2024-02-08T02:36:30.260Z,0.00
2024-02-08T02:38:56.898Z,0.20
2024-02-08T02:41:26.721Z,0.00
2024-02-08T02:43:53.774Z,0.00
2024-02-08T02:46:23.419Z,0.00
2024-02-08T02:48:51.745Z,0.00
2024-02-08T02:51:18.572Z,1.65
2024-02-08T02:53:46.485Z,0.00
2024-02-08T02:56:13.676Z,0.00
2024-02-08T02:58:41.068Z,0.00
2024-02-08T03:01:08.088Z,0.00
2024-02-08T03:03:42.158Z,0.00
2024-02-08T03:06:14.945Z,0.00
2024-02-08T03:08:42.786Z,0.00
2024-02-08T03:11:12.829Z,0.00
2024-02-08T03:13:40.035Z,0.00
2024-02-08T03:16:07.244Z,0.00
2024-02-08T03:18:33.960Z,0.00
2024-02-08T03:21:02.359Z,0.00
2024-02-08T03:23:28.962Z,0.00
2024-02-08T03:25:57.821Z,0.00
2024-02-08T03:28:24.827Z,0.00
2024-02-08T03:30:53.732Z,0.00
2024-02-08T03:33:20.541Z,0.00
2024-02-08T03:35:55.388Z,0.03
2024-02-08T03:38:22.175Z,0.00
2024-02-08T03:40:48.806Z,0.00
2024-02-08T03:43:17.098Z,1.75
2024-02-08T03:45:45.242Z,0.00
2024-02-08T03:48:12.659Z,0.00
2024-02-08T03:50:40.646Z,0.88
2024-02-08T03:53:13.431Z,0.00
2024-02-08T03:55:45.108Z,0.00
2024-02-08T03:58:15.306Z,0.00
2024-02-08T04:00:48.088Z,0.00
2024-02-08T04:03:38.004Z,0.00
2024-02-08T04:06:17.718Z,0.10
2024-02-08T04:09:04.348Z,0.00
2024-02-08T04:11:49.760Z,0.00
2024-02-08T04:14:35.168Z,0.00
2024-02-08T04:17:20.592Z,0.00
2024-02-08T04:20:06.017Z,0.05
2024-02-08T04:22:51.489Z,0.00
2024-02-08T04:25:36.740Z,0.00
2024-02-08T04:28:22.167Z,0.00
2024-02-08T04:31:07.495Z,0.00
2024-02-08T04:33:52.979Z,0.00
2024-02-08T04:36:38.140Z,0.00
2024-02-08T04:39:23.260Z,0.00
2024-02-08T04:42:08.789Z,0.00
2024-02-08T04:44:54.216Z,0.00
2024-02-08T04:47:39.920Z,0.00
2024-02-08T04:50:25.403Z,0.00
2024-02-08T04:53:10.870Z,0.00
2024-02-08T04:55:37.873Z,0.00
2024-02-08T04:58:28.145Z,0.00
2024-02-08T05:00:53.115Z,0.00
2024-02-08T05:03:20.751Z,0.00
2024-02-08T05:05:48.176Z,0.00
2024-02-08T05:08:17.244Z,0.00
2024-02-08T05:10:47.124Z,0.00
2024-02-08T05:13:14.740Z,0.00
2024-02-08T05:15:44.185Z,0.00
2024-02-08T05:18:13.749Z,0.00
2024-02-08T05:20:40.916Z,0.00
2024-02-08T05:23:07.580Z,0.00
2024-02-08T05:25:36.996Z,0.00
2024-02-08T05:28:05.108Z,0.00
2024-02-08T05:30:33.829Z,0.00
2024-02-08T05:33:02.430Z,0.00
2024-02-08T05:35:33.379Z,0.00
2024-02-08T05:38:02.304Z,0.00
2024-02-08T05:40:32.488Z,0.00
2024-02-08T05:42:59.599Z,0.00
2024-02-08T05:45:32.179Z,0.00
2024-02-08T05:48:01.646Z,0.10
2024-02-08T05:50:28.295Z,0.00
2024-02-08T05:52:58.387Z,0.00
2024-02-08T05:55:28.289Z,0.00
2024-02-08T05:57:59.737Z,0.00
2024-02-08T06:00:46.872Z,0.00
2024-02-08T06:03:26.456Z,0.10
2024-02-08T06:06:07.474Z,0.43
2024-02-08T06:08:40.873Z,0.00
2024-02-08T06:11:15.626Z,0.00
2024-02-08T06:13:42.888Z,0.00
2024-02-08T06:16:15.642Z,0.00
2024-02-08T06:18:46.471Z,31.67
2024-02-08T06:21:25.741Z,46.10
2024-02-08T06:24:01.317Z,42.92
2024-02-08T06:26:31.902Z,33.47
2024-02-08T06:29:06.767Z,31.13
2024-02-08T06:31:42.146Z,40.90
2024-02-08T06:34:32.304Z,37.40
2024-02-08T06:37:18.058Z,28.52
2024-02-08T06:39:46.652Z,46.30
2024-02-08T06:42:32.995Z,33.30
2024-02-08T06:45:18.695Z,35.95
2024-02-08T06:48:01.314Z,27.65
2024-02-08T06:50:47.317Z,36.53
2024-02-08T06:53:36.231Z,41.17
2024-02-08T06:56:23.943Z,28.17
2024-02-08T06:59:09.514Z,47.53
2024-02-08T07:01:55.233Z,48.42
2024-02-08T07:04:40.756Z,36.53
2024-02-08T07:07:27.096Z,39.38
2024-02-08T07:10:13.209Z,33.97
2024-02-08T07:12:58.702Z,31.80
2024-02-08T07:15:44.245Z,30.70
2024-02-08T07:18:49.345Z,39.28
2024-02-08T07:21:40.558Z,32.63
2024-02-08T07:24:26.130Z,33.92
2024-02-08T07:27:11.599Z,36.38
2024-02-08T07:30:00.752Z,33.33
2024-02-08T07:32:45.979Z,41.78
2024-02-08T07:35:31.605Z,33.60
2024-02-08T07:38:00.452Z,30.08
2024-02-08T07:40:28.232Z,26.95
2024-02-08T07:43:17.288Z,25.65
2024-02-08T07:45:46.356Z,20.50
2024-02-08T07:48:14.505Z,28.40
2024-02-08T07:50:47.824Z,35.97
2024-02-08T07:53:35.472Z,31.77
2024-02-08T07:56:21.054Z,34.53
2024-02-08T07:58:50.064Z,25.15
2024-02-08T08:01:20.179Z,22.65
2024-02-08T08:03:47.457Z,36.05
2024-02-08T08:06:16.383Z,27.63
2024-02-08T08:08:58.709Z,27.13
2024-02-08T08:11:32.379Z,17.63
2024-02-08T08:14:02.379Z,29.55
2024-02-08T08:16:32.185Z,27.35
2024-02-08T08:19:00.358Z,45.88
2024-02-08T08:21:27.779Z,21.63
2024-02-08T08:24:04.493Z,35.28
2024-02-08T08:26:40.806Z,33.33
2024-02-08T08:29:18.259Z,36.95
2024-02-08T08:31:54.711Z,26.90
2024-02-08T08:37:04.528Z,39.55
2024-02-08T08:39:50.877Z,36.70
2024-02-08T08:42:18.275Z,38.88
2024-02-08T08:44:49.991Z,31.70
2024-02-08T08:47:17.786Z,41.58
2024-02-08T08:49:52.345Z,25.63
2024-02-08T08:52:26.273Z,35.17
2024-02-08T08:55:12.451Z,28.98
2024-02-08T08:57:39.413Z,42.88
2024-02-08T09:00:10.721Z,39.72
2024-02-08T09:02:41.527Z,28.38
2024-02-08T09:05:18.578Z,29.92
2024-02-08T09:07:46.548Z,22.45
2024-02-08T09:10:15.466Z,28.27
2024-02-08T09:12:59.673Z,35.83
2024-02-08T09:15:30.660Z,28.80
2024-02-08T09:18:10.255Z,31.02
2024-02-08T09:20:39.195Z,18.02
2024-02-08T09:23:15.691Z,22.92
2024-02-08T09:25:46.754Z,21.40
2024-02-08T09:28:27.444Z,35.13
2024-02-08T09:30:55.222Z,38.33
2024-02-08T09:33:31.610Z,29.30
2024-02-08T09:36:00.520Z,24.67
2024-02-08T09:38:29.512Z,28.60
2024-02-08T09:41:00.670Z,31.48
2024-02-08T09:43:30.635Z,37.97
2024-02-08T09:46:29.333Z,44.22
2024-02-08T09:49:02.135Z,31.92
2024-02-08T09:51:36.391Z,27.90
2024-02-08T09:54:17.326Z,38.15
2024-02-08T09:56:51.348Z,36.13
2024-02-08T09:59:21.714Z,30.63
2024-02-08T10:01:51.311Z,25.27
2024-02-08T10:04:20.873Z,38.47
2024-02-08T10:07:00.098Z,27.92
2024-02-08T10:09:48.565Z,29.20
2024-02-08T10:12:30.229Z,31.45
2024-02-08T10:15:01.657Z,25.92
2024-02-08T10:17:53.164Z,31.35
2024-02-08T10:20:22.273Z,33.92
2024-02-08T10:23:10.910Z,29.83
2024-02-08T10:25:56.643Z,26.45
2024-02-08T10:28:25.259Z,24.25
2024-02-08T10:30:58.310Z,30.13
2024-02-08T10:33:26.247Z,25.70
2024-02-08T10:35:59.735Z,30.55
2024-02-08T10:38:31.456Z,35.95
2024-02-08T10:40:59.287Z,29.20
2024-02-08T10:43:26.506Z,39.83
2024-02-08T10:45:54.644Z,33.15
2024-02-08T10:48:22.918Z,28.00
2024-02-08T10:50:51.301Z,33.42
2024-02-08T10:53:38.361Z,33.13
2024-02-08T10:56:15.273Z,29.45
2024-02-08T10:59:10.414Z,36.13
2024-02-08T11:01:49.989Z,25.58
2024-02-08T11:04:30.007Z,27.00
2024-02-08T11:07:07.469Z,23.35
2024-02-08T11:09:36.109Z,19.33
2024-02-08T11:12:07.925Z,28.58
2024-02-08T11:14:42.112Z,35.13
2024-02-08T11:17:29.629Z,29.35
2024-02-08T11:20:00.824Z,0.30
2024-02-08T11:22:41.209Z,0.10
2024-02-08T11:25:21.606Z,0.80
2024-02-08T11:27:49.670Z,0.10
2024-02-08T11:30:23.579Z,0.10
2024-02-08T11:32:58.177Z,0.00
2024-02-08T11:35:31.259Z,0.30
2024-02-08T11:38:11.189Z,0.20
2024-02-08T11:40:38.103Z,0.30
2024-02-08T11:43:09.019Z,0.00
2024-02-08T11:45:42.658Z,0.00
2024-02-08T11:48:11.162Z,0.00
2024-02-08T11:50:38.077Z,0.00
2024-02-08T11:53:07.555Z,0.00
2024-02-08T11:55:37.350Z,0.32
2024-02-08T11:58:05.160Z,0.00
2024-02-08T12:00:32.220Z,0.00
2024-02-08T12:02:59.543Z,0.10
2024-02-08T12:05:27.782Z,0.10
2024-02-08T12:08:09.610Z,0.00
2024-02-08T12:10:38.374Z,0.00
2024-02-08T12:13:06.476Z,0.00
2024-02-08T12:15:36.199Z,0.30
2024-02-08T12:18:11.152Z,0.00
2024-02-08T12:20:38.041Z,0.10
2024-02-08T12:23:05.133Z,0.98
2024-02-08T12:25:31.881Z,0.00
2024-02-08T12:28:02.276Z,0.10
2024-02-08T12:30:33.584Z,0.05
2024-02-08T12:33:09.013Z,0.00
2024-02-08T12:35:42.317Z,0.17
2024-02-08T12:38:10.166Z,0.00
2024-02-08T12:40:37.116Z,0.03
2024-02-08T12:43:09.647Z,0.13
2024-02-08T12:45:39.203Z,1.20
2024-02-08T12:48:09.571Z,0.00
2024-02-08T12:50:39.242Z,0.00
2024-02-08T12:53:07.151Z,0.22
2024-02-08T12:55:34.413Z,0.08
2024-02-08T12:58:05.709Z,0.00
2024-02-08T13:00:35.389Z,0.00
2024-02-08T13:03:12.117Z,0.00
2024-02-08T13:05:40.064Z,0.00
2024-02-08T13:08:08.832Z,0.08
2024-02-08T13:10:39.433Z,0.10
2024-02-08T13:13:16.168Z,0.00
2024-02-08T13:15:44.243Z,0.20
2024-02-08T13:18:13.101Z,0.00
2024-02-08T13:20:43.262Z,0.25
2024-02-08T13:23:11.811Z,0.10
2024-02-08T13:25:41.148Z,0.08
2024-02-08T13:28:11.634Z,0.20
2024-02-08T13:30:41.228Z,0.05
2024-02-08T13:33:12.163Z,0.10
2024-02-08T13:35:43.507Z,0.10
2024-02-08T13:38:13.119Z,0.00
2024-02-08T13:40:44.437Z,0.00
2024-02-08T13:43:12.182Z,0.10
2024-02-08T13:45:40.114Z,0.63
2024-02-08T13:48:12.393Z,0.10
2024-02-08T13:50:39.575Z,0.00
2024-02-08T13:53:06.338Z,0.20
2024-02-08T13:58:07.709Z,0.00
2024-02-08T14:00:35.225Z,0.10
2024-02-08T14:03:02.135Z,0.40
2024-02-08T14:05:30.897Z,0.00
2024-02-08T14:07:58.526Z,0.40
2024-02-08T14:10:29.511Z,0.10
2024-02-08T14:13:19.026Z,0.10
2024-02-08T14:15:47.678Z,0.00
2024-02-08T14:18:28.564Z,0.00
2024-02-08T14:20:59.356Z,0.00
2024-02-08T14:23:40.195Z,0.08
2024-02-08T14:26:22.695Z,0.00
2024-02-08T14:28:49.552Z,0.52
2024-02-08T14:31:17.565Z,3.00
2024-02-08T14:33:47.753Z,0.43
2024-02-08T14:36:15.780Z,0.00
2024-02-08T14:38:42.779Z,0.30
2024-02-08T14:41:27.513Z,0.10
2024-02-08T14:43:55.495Z,0.00
2024-02-08T14:46:27.784Z,0.35
2024-02-08T14:48:55.231Z,0.10
2024-02-08T14:51:25.008Z,0.10
2024-02-08T14:53:55.212Z,0.32
2024-02-08T14:56:22.276Z,0.10
2024-02-08T14:59:10.687Z,0.00
2024-02-08T15:01:41.490Z,0.10
2024-02-08T15:04:17.243Z,0.38
2024-02-08T15:07:07.047Z,0.93
2024-02-08T15:09:41.634Z,0.10
2024-02-08T15:12:23.518Z,0.35
2024-02-08T15:14:50.114Z,0.25
2024-02-08T15:17:20.306Z,0.00
2024-02-08T15:19:48.246Z,0.00
2024-02-08T15:22:28.453Z,0.10
2024-02-08T15:24:58.756Z,0.10
2024-02-08T15:27:44.522Z,0.10
2024-02-08T15:30:19.428Z,0.28
2024-02-08T15:32:59.225Z,1.23
2024-02-08T15:35:38.558Z,0.13
2024-02-08T15:38:21.034Z,0.05
2024-02-08T15:40:56.565Z,0.10
2024-02-08T15:43:27.041Z,0.10
2024-02-08T15:45:55.758Z,0.10
2024-02-08T15:48:33.635Z,0.20
2024-02-08T15:51:09.836Z,0.10
2024-02-08T15:53:42.855Z,0.10
2024-02-08T15:56:14.181Z,0.08
2024-02-08T15:58:46.555Z,0.15
2024-02-08T16:01:21.756Z,0.05
2024-02-08T16:03:57.923Z,0.50
2024-02-08T16:06:41.325Z,0.20
2024-02-08T16:09:09.137Z,0.00
2024-02-08T16:11:36.737Z,0.10
2024-02-08T16:14:16.799Z,0.05
2024-02-08T16:17:08.277Z,0.35
2024-02-08T16:19:52.047Z,0.00
2024-02-08T16:22:25.476Z,0.10
2024-02-08T16:24:53.691Z,0.80
2024-02-08T16:27:23.345Z,0.00
2024-02-08T16:30:22.411Z,0.22
2024-02-08T16:32:57.276Z,0.00
2024-02-08T16:35:34.759Z,0.10
2024-02-08T16:38:11.064Z,0.35
2024-02-08T16:43:29.845Z,0.00
2024-02-08T16:46:06.523Z,0.17
2024-02-08T16:48:38.196Z,0.20
2024-02-08T16:51:11.378Z,0.10
2024-02-08T16:53:41.171Z,0.00
2024-02-08T16:56:11.826Z,0.20
2024-02-08T16:58:45.521Z,0.10
2024-02-08T17:01:31.137Z,0.15
2024-02-08T17:04:02.605Z,0.13
2024-02-08T17:06:35.149Z,1.35
2024-02-08T17:09:02.575Z,0.00
2024-02-08T17:11:34.997Z,0.10
2024-02-08T17:14:02.112Z,0.10
2024-02-08T17:16:31.937Z,0.00
2024-02-08T17:19:17.682Z,0.95
2024-02-08T17:21:53.595Z,0.03
2024-02-08T17:24:30.947Z,0.10
2024-02-08T17:27:01.066Z,0.10
2024-02-08T17:29:36.797Z,0.10
2024-02-08T17:32:09.061Z,0.10
2024-02-08T17:34:38.762Z,1.00
2024-02-08T17:37:07.227Z,0.00
2024-02-08T17:39:56.522Z,0.00
2024-02-08T17:42:23.259Z,0.00
2024-02-08T17:44:56.032Z,2.45
2024-02-08T17:47:30.064Z,0.20
2024-02-08T17:50:04.762Z,0.10
2024-02-08T17:52:38.773Z,0.32
2024-02-08T17:55:05.967Z,0.10
2024-02-08T17:57:34.643Z,0.10
2024-02-08T18:00:01.856Z,0.10
2024-02-08T18:02:33.486Z,0.20
2024-02-08T18:05:09.768Z,0.03
2024-02-08T18:10:27.950Z,0.10
2024-02-08T18:12:55.945Z,0.10
2024-02-08T18:15:27.117Z,0.68
2024-02-08T18:17:57.681Z,0.20
2024-02-08T18:20:26.507Z,0.20
2024-02-08T18:22:53.237Z,0.47
2024-02-08T18:25:29.887Z,0.00
2024-02-08T18:28:00.970Z,0.25
2024-02-08T18:30:32.787Z,1.02
2024-02-08T18:33:07.441Z,0.17
2024-02-08T18:35:35.666Z,0.10
2024-02-08T18:38:09.639Z,0.57
2024-02-08T18:40:38.783Z,0.00
2024-02-08T18:43:07.387Z,0.10
2024-02-08T18:45:41.925Z,0.10
2024-02-08T18:48:12.329Z,0.10
2024-02-08T18:50:43.855Z,0.10
2024-02-08T18:53:10.800Z,0.10
2024-02-08T18:55:45.150Z,0.10
2024-02-08T18:58:19.935Z,0.10
2024-02-08T19:00:50.675Z,0.15
2024-02-08T19:03:21.649Z,1.00
2024-02-08T19:05:49.960Z,0.10
2024-02-08T19:08:20.872Z,0.10
2024-02-08T19:10:59.745Z,0.65
2024-02-08T19:13:32.700Z,0.20
2024-02-08T19:16:13.945Z,0.00
2024-02-08T19:18:45.848Z,0.10
2024-02-08T19:21:23.185Z,0.20
2024-02-08T19:23:50.650Z,0.10
2024-02-08T19:26:18.289Z,0.10
2024-02-08T19:28:46.425Z,0.10
2024-02-08T19:31:15.943Z,0.95
2024-02-08T19:33:43.308Z,0.10
2024-02-08T19:36:10.706Z,0.68
2024-02-08T19:38:37.443Z,0.10
2024-02-08T19:41:08.295Z,0.10
2024-02-08T19:43:36.703Z,0.20
2024-02-08T19:46:04.433Z,0.10
2024-02-08T19:48:33.534Z,0.05
2024-02-08T19:51:10.287Z,0.00
2024-02-08T19:53:38.770Z,0.10
2024-02-08T19:56:08.774Z,0.00
2024-02-08T19:58:35.802Z,0.10
2024-02-08T20:01:10.939Z,0.10
2024-02-08T20:03:42.331Z,0.50
2024-02-08T20:06:12.509Z,0.10
2024-02-08T20:08:46.041Z,0.10
2024-02-08T20:11:12.961Z,0.10
2024-02-08T20:13:40.042Z,0.10
2024-02-08T20:16:10.299Z,0.50
2024-02-08T20:18:38.622Z,0.10
2024-02-08T20:21:06.529Z,0.28
2024-02-08T20:23:33.643Z,0.20
2024-02-08T20:26:01.536Z,0.10
2024-02-08T20:28:32.347Z,0.28
2024-02-08T20:30:59.868Z,0.10
2024-02-08T20:33:30.044Z,0.20
2024-02-08T20:36:01.842Z,0.10
2024-02-08T20:38:31.717Z,0.10
2024-02-08T20:40:58.379Z,0.10
2024-02-08T20:43:27.688Z,0.10
2024-02-08T20:45:55.685Z,0.10
2024-02-08T20:48:22.899Z,0.10
2024-02-08T20:50:51.544Z,0.10
2024-02-08T20:53:18.767Z,0.20
2024-02-08T20:55:46.035Z,0.95
2024-02-08T20:58:13.630Z,0.10
2024-02-08T21:00:47.105Z,0.30
2024-02-08T21:03:15.155Z,0.10
2024-02-08T21:05:43.251Z,0.10
2024-02-08T21:08:10.471Z,0.10
2024-02-08T21:10:37.738Z,0.10
2024-02-08T21:13:04.712Z,0.10
2024-02-08T21:15:32.058Z,0.10
2024-02-08T21:17:58.857Z,0.10
2024-02-08T21:20:26.294Z,0.40
2024-02-08T21:22:53.325Z,0.10
2024-02-08T21:25:21.485Z,0.10
2024-02-08T21:27:54.870Z,0.10
2024-02-08T21:30:26.356Z,0.55
2024-02-08T21:32:53.394Z,0.52
2024-02-08T21:35:20.446Z,0.20
2024-02-08T21:37:47.361Z,0.45
2024-02-08T21:40:14.542Z,0.20
2024-02-08T21:42:41.345Z,0.13
2024-02-08T21:45:13.527Z,0.10
2024-02-08T21:47:40.657Z,0.22
2024-02-08T21:50:08.933Z,0.15
2024-02-08T21:52:36.593Z,0.17
2024-02-08T21:55:06.900Z,0.10
2024-02-08T21:57:37.020Z,0.73
2024-02-08T22:00:12.348Z,0.10
2024-02-08T22:02:41.021Z,0.10
2024-02-08T22:05:12.345Z,0.10
2024-02-08T22:07:41.124Z,0.20
2024-02-08T22:10:13.420Z,0.10
2024-02-08T22:12:44.716Z,1.65
2024-02-08T22:15:18.820Z,0.10
2024-02-08T22:17:47.891Z,0.10
2024-02-08T22:20:14.846Z,0.10
2024-02-08T22:22:42.175Z,0.10
2024-02-08T22:25:09.411Z,0.10
2024-02-08T22:27:36.975Z,0.20
2024-02-08T22:30:04.883Z,0.10
2024-02-08T22:32:33.333Z,1.00
2024-02-08T22:35:00.133Z,0.10
2024-02-08T22:37:27.079Z,0.15
2024-02-08T22:39:55.211Z,0.28
2024-02-08T22:42:21.892Z,0.20
2024-02-08T22:44:49.590Z,0.10
2024-02-08T22:47:16.234Z,0.10
2024-02-08T22:49:43.165Z,0.10
2024-02-08T22:52:11.741Z,0.10
2024-02-08T22:54:41.384Z,0.20
2024-02-08T22:57:08.008Z,0.30
2024-02-08T22:59:35.005Z,0.52
2024-02-08T23:02:08.040Z,0.20
2024-02-08T23:04:34.891Z,0.50
2024-02-08T23:07:04.438Z,0.30
2024-02-08T23:09:31.400Z,0.20
2024-02-08T23:11:59.133Z,0.20
2024-02-08T23:14:26.611Z,0.20
2024-02-08T23:16:53.497Z,16.40
2024-02-08T23:19:20.804Z,0.32
2024-02-08T23:21:52.884Z,0.20
2024-02-08T23:24:24.165Z,0.20
2024-02-08T23:26:51.180Z,2.47
2024-02-08T23:29:17.927Z,0.30
2024-02-08T23:31:44.729Z,0.20
2024-02-08T23:34:11.965Z,0.20
2024-02-08T23:36:39.977Z,0.20
2024-02-08T23:39:08.402Z,0.10
2024-02-08T23:41:37.550Z,0.10
2024-02-08T23:44:04.536Z,0.10
2024-02-08T23:46:31.287Z,1.75
2024-02-08T23:48:58.927Z,0.10
2024-02-08T23:51:26.177Z,0.10
2024-02-08T23:53:55.117Z,0.20
2024-02-08T23:56:25.043Z,0.10
2024-02-08T23:58:52.664Z,0.63
